Time;durP1;ratioP1;P1;durP2;ratioP2;P2;SDS_P1;SDS_P2;PMS_P1;PMS_P2;Temp;Humidity;BMP_temperature;BMP_pressure;BME280_temperature;BME280_humidity;BME280_pressure;Samples;Min_cycle;Max_cycle;Signal;HPM_P1;HPM_P2
2021/08/04 00:02:16;;;;;;;14.60;14.10;;;16.60;99.90;;;;;;4951867;29;20489;-67
2021/08/04 00:04:43;;;;;;;15.20;14.50;;;16.60;99.90;;;;;;4952153;29;20457;-67
2021/08/04 00:07:10;;;;;;;16.40;15.70;;;16.50;99.90;;;;;;4952228;29;20449;-67
2021/08/04 00:09:36;;;;;;;15.00;14.43;;;16.40;99.90;;;;;;4952100;28;20495;-68
2021/08/04 00:12:04;;;;;;;15.87;15.27;;;16.20;99.90;;;;;;4952150;29;20503;-68
2021/08/04 00:14:31;;;;;;;15.37;14.77;;;16.20;99.90;;;;;;4952214;29;20793;-68
2021/08/04 00:16:57;;;;;;;15.43;14.63;;;16.20;99.90;;;;;;4952179;29;20456;-69
2021/08/04 00:19:25;;;;;;;15.73;15.00;;;16.20;99.90;;;;;;4952025;29;20480;-70
2021/08/04 00:21:52;;;;;;;16.63;15.77;;;16.20;99.90;;;;;;4952148;29;20457;-70
2021/08/04 00:24:19;;;;;;;17.60;16.90;;;16.20;99.90;;;;;;4952339;29;20863;-69
2021/08/04 00:26:45;;;;;;;16.77;16.17;;;16.30;99.90;;;;;;4952007;29;20455;-69
2021/08/04 00:29:12;;;;;;;17.77;17.07;;;16.10;99.90;;;;;;4952014;29;20535;-69
2021/08/04 00:31:39;;;;;;;17.97;17.07;;;16.10;99.90;;;;;;4952096;29;20830;-70
2021/08/04 00:34:06;;;;;;;17.53;16.77;;;16.10;99.90;;;;;;4952013;29;20482;-70
2021/08/04 00:36:34;;;;;;;17.13;16.33;;;16.00;99.90;;;;;;4952171;29;21015;-70
2021/08/04 00:39:00;;;;;;;16.97;16.17;;;16.00;99.90;;;;;;4952095;29;20460;-70
2021/08/04 00:41:27;;;;;;;16.07;15.40;;;16.00;99.90;;;;;;4951783;29;20515;-71
2021/08/04 00:43:54;;;;;;;17.03;16.23;;;16.00;99.90;;;;;;4951884;29;20457;-70
2021/08/04 00:46:20;;;;;;;16.53;15.73;;;16.00;99.90;;;;;;4952007;29;20534;-71
2021/08/04 00:48:48;;;;;;;15.93;15.33;;;16.10;99.90;;;;;;4951903;29;20488;-70
2021/08/04 00:51:15;;;;;;;15.60;15.00;;;16.00;99.90;;;;;;4952067;29;20801;-70
2021/08/04 00:53:43;;;;;;;15.83;15.23;;;16.00;99.90;;;;;;4951882;29;20461;-70
2021/08/04 00:56:10;;;;;;;15.87;15.00;;;16.00;99.90;;;;;;4951809;29;20452;-70
2021/08/04 00:58:39;;;;;;;15.73;15.07;;;16.10;99.90;;;;;;4951549;29;20503;-70
2021/08/04 01:01:12;;;;;;;15.50;14.50;;;16.10;99.90;;;;;;4951789;29;20484;-70
2021/08/04 01:03:43;;;;;;;15.33;14.63;;;16.10;99.90;;;;;;4951810;29;20527;-70
2021/08/04 01:06:14;;;;;;;15.07;14.27;;;16.10;99.90;;;;;;4951625;29;20721;-69
2021/08/04 01:08:51;;;;;;;14.40;13.70;;;16.10;99.90;;;;;;4951854;29;20452;-69
2021/08/04 01:11:20;;;;;;;13.10;12.50;;;16.10;99.90;;;;;;4951798;29;20444;-70
2021/08/04 01:13:49;;;;;;;13.13;12.53;;;16.20;99.90;;;;;;4951916;29;20457;-68
2021/08/04 01:16:22;;;;;;;12.93;12.33;;;16.20;99.90;;;;;;4951850;29;21126;-68
2021/08/04 01:19:00;;;;;;;12.40;11.90;;;16.30;99.90;;;;;;4951866;29;20460;-68
2021/08/04 01:21:35;;;;;;;13.27;12.40;;;16.40;99.90;;;;;;4952887;28;20448;-68
2021/08/04 01:24:10;;;;;;;12.60;12.00;;;16.40;99.90;;;;;;4955217;29;20479;-69
2021/08/04 01:26:40;;;;;;;13.20;12.63;;;16.50;99.90;;;;;;4954894;29;20448;-69
2021/08/04 01:29:11;;;;;;;13.53;12.30;;;16.60;99.90;;;;;;4955316;29;20452;-69
2021/08/04 01:31:39;;;;;;;13.10;12.40;;;16.70;99.90;;;;;;4955109;29;20481;-69
2021/08/04 01:34:06;;;;;;;13.27;12.37;;;16.60;99.90;;;;;;4954932;29;20456;-69
2021/08/04 01:36:34;;;;;;;12.80;12.10;;;16.60;99.90;;;;;;4955285;29;20456;-70
2021/08/04 01:39:04;;;;;;;13.20;12.70;;;16.60;99.90;;;;;;4955076;29;20460;-69
2021/08/04 01:41:34;;;;;;;12.93;12.23;;;16.50;99.90;;;;;;4955403;29;20461;-69
2021/08/04 01:44:05;;;;;;;13.50;12.90;;;16.60;99.90;;;;;;4955448;29;20448;-69
2021/08/04 01:46:32;;;;;;;13.20;12.60;;;16.60;99.90;;;;;;4954958;29;20483;-69
2021/08/04 01:49:01;;;;;;;12.30;11.80;;;16.60;99.90;;;;;;4954733;29;20533;-69
2021/08/04 01:51:28;;;;;;;12.67;12.17;;;16.60;99.90;;;;;;4954669;29;20444;-70
2021/08/04 01:53:55;;;;;;;12.80;12.20;;;16.60;99.90;;;;;;4954538;29;20790;-70
2021/08/04 01:56:22;;;;;;;13.07;12.50;;;16.60;99.90;;;;;;4954362;29;20947;-70
2021/08/04 01:58:49;;;;;;;13.07;12.47;;;16.60;99.90;;;;;;4954683;29;20456;-70
2021/08/04 02:01:17;;;;;;;13.50;12.90;;;16.60;99.90;;;;;;4954456;29;20480;-70
2021/08/04 02:03:44;;;;;;;12.47;11.97;;;16.60;99.90;;;;;;4954414;29;20869;-71
2021/08/04 02:06:18;;;;;;;12.07;11.47;;;16.60;99.90;;;;;;4954329;29;20865;-70
2021/08/04 02:08:57;;;;;;;12.90;12.40;;;16.60;99.90;;;;;;4954501;29;20452;-71
2021/08/04 02:11:27;;;;;;;12.33;11.80;;;16.70;99.90;;;;;;4954001;29;20492;-71
2021/08/04 02:14:00;;;;;;;13.60;12.50;;;16.60;99.90;;;;;;4954197;29;20460;-70
2021/08/04 02:16:34;;;;;;;12.90;12.40;;;16.60;99.90;;;;;;4954160;29;20941;-71
2021/08/04 02:19:11;;;;;;;12.67;12.07;;;16.60;99.90;;;;;;4954282;29;20456;-71
2021/08/04 02:21:43;;;;;;;12.60;12.00;;;16.60;99.90;;;;;;4954242;29;20456;-70
2021/08/04 02:24:11;;;;;;;12.83;12.33;;;16.60;99.90;;;;;;4954266;29;21064;-70
2021/08/04 02:26:40;;;;;;;12.30;11.80;;;16.70;99.90;;;;;;4953855;29;20876;-68
2021/08/04 02:29:08;;;;;;;13.00;12.40;;;16.60;99.90;;;;;;4953931;29;20500;-68
2021/08/04 02:31:37;;;;;;;13.37;12.57;;;16.60;99.90;;;;;;4953869;28;20883;-68
2021/08/04 02:34:04;;;;;;;12.93;12.33;;;16.60;99.90;;;;;;4954184;29;20522;-68
2021/08/04 02:36:31;;;;;;;13.70;12.90;;;16.60;99.90;;;;;;4953751;29;20456;-68
2021/08/04 02:39:01;;;;;;;12.80;12.30;;;16.70;99.90;;;;;;4953679;29;20984;-68
2021/08/04 02:41:29;;;;;;;12.70;12.20;;;16.60;99.90;;;;;;4953512;29;20968;-68
2021/08/04 02:43:55;;;;;;;13.00;12.40;;;16.60;99.90;;;;;;4953535;29;20543;-68
2021/08/04 02:46:23;;;;;;;13.10;12.40;;;16.60;99.90;;;;;;4953535;29;20519;-67
2021/08/04 02:48:51;;;;;;;12.93;12.07;;;16.60;99.90;;;;;;4953618;29;20457;-67
2021/08/04 02:51:22;;;;;;;13.33;12.53;;;16.60;99.90;;;;;;4953742;29;20480;-69
2021/08/04 02:53:54;;;;;;;13.20;12.60;;;16.50;99.90;;;;;;4953904;29;20456;-69
2021/08/04 02:56:21;;;;;;;13.20;12.50;;;16.50;99.90;;;;;;4953312;29;20457;-68
2021/08/04 02:58:47;;;;;;;12.47;11.83;;;16.60;99.90;;;;;;4953510;29;20481;-69
2021/08/04 03:01:14;;;;;;;13.00;12.30;;;16.60;99.90;;;;;;4952361;29;20492;-68
2021/08/04 03:03:41;;;;;;;12.90;12.30;;;16.60;99.90;;;;;;4953520;29;20523;-69
2021/08/04 03:06:09;;;;;;;12.60;12.10;;;16.60;99.90;;;;;;4953532;29;20875;-69
2021/08/04 03:08:37;;;;;;;14.33;13.57;;;16.60;99.90;;;;;;4952689;29;21059;-69
2021/08/04 03:11:03;;;;;;;13.57;12.87;;;16.50;99.90;;;;;;4953680;29;20480;-70
2021/08/04 03:13:30;;;;;;;13.10;12.20;;;16.60;99.90;;;;;;4953574;29;20453;-69
2021/08/04 03:15:57;;;;;;;13.37;12.67;;;16.50;99.90;;;;;;4953218;29;20979;-69
2021/08/04 03:18:23;;;;;;;13.57;12.80;;;16.50;99.90;;;;;;4953318;29;20464;-70
2021/08/04 03:20:50;;;;;;;12.70;11.80;;;16.50;99.90;;;;;;4953438;29;20853;-70
2021/08/04 03:23:18;;;;;;;13.10;12.60;;;16.60;99.90;;;;;;4953393;29;20941;-69
2021/08/04 03:25:45;;;;;;;13.47;12.57;;;16.70;99.90;;;;;;4953706;29;20456;-70
2021/08/04 03:28:12;;;;;;;13.27;12.60;;;16.60;99.90;;;;;;4953025;29;20762;-70
2021/08/04 03:30:38;;;;;;;13.37;12.70;;;16.60;99.90;;;;;;4953291;29;20571;-71
2021/08/04 03:33:05;;;;;;;12.93;12.33;;;16.60;99.90;;;;;;4953572;29;20461;-70
2021/08/04 03:35:32;;;;;;;12.67;12.07;;;16.60;99.90;;;;;;4953002;29;20952;-70
2021/08/04 03:37:59;;;;;;;12.17;11.57;;;16.50;99.90;;;;;;4953226;29;20453;-70
2021/08/04 03:40:28;;;;;;;13.20;12.43;;;16.60;99.90;;;;;;4953314;29;20790;-70
2021/08/04 03:42:54;;;;;;;13.30;12.70;;;16.50;99.90;;;;;;4953011;29;20610;-69
2021/08/04 03:45:21;;;;;;;14.37;13.43;;;16.50;99.90;;;;;;4952550;28;20590;-69
2021/08/04 03:47:48;;;;;;;12.60;12.00;;;16.50;99.90;;;;;;4952826;29;20484;-69
2021/08/04 03:50:15;;;;;;;12.67;11.97;;;16.50;99.90;;;;;;4953028;29;20496;-69
2021/08/04 03:52:43;;;;;;;11.80;11.10;;;16.50;99.90;;;;;;4953041;29;20507;-70
2021/08/04 03:55:10;;;;;;;13.63;12.57;;;16.50;99.90;;;;;;4952845;29;20449;-70
2021/08/04 03:57:38;;;;;;;12.57;11.87;;;16.50;99.90;;;;;;4952557;29;20463;-70
2021/08/04 04:00:07;;;;;;;12.57;11.97;;;16.50;99.90;;;;;;4952828;29;20527;-69
2021/08/04 04:02:34;;;;;;;13.00;12.40;;;16.40;99.90;;;;;;4952642;29;20912;-70
2021/08/04 04:05:01;;;;;;;12.90;12.30;;;16.40;99.90;;;;;;4952671;29;20452;-69
2021/08/04 04:07:27;;;;;;;12.80;12.10;;;16.40;99.90;;;;;;4952859;29;20452;-69
2021/08/04 04:09:54;;;;;;;14.73;13.93;;;16.50;99.90;;;;;;4951631;29;20476;-69
2021/08/04 04:12:21;;;;;;;13.20;12.50;;;16.40;99.90;;;;;;4952423;29;20456;-69
2021/08/04 04:14:49;;;;;;;13.70;13.10;;;16.40;99.90;;;;;;4952839;29;20460;-70
2021/08/04 04:17:15;;;;;;;13.60;13.00;;;16.30;99.90;;;;;;4952704;29;20463;-70
2021/08/04 04:19:42;;;;;;;13.90;13.20;;;16.40;99.90;;;;;;4952665;29;20448;-70
2021/08/04 04:22:09;;;;;;;14.67;13.87;;;16.40;99.90;;;;;;4952502;29;20452;-70
2021/08/04 04:24:36;;;;;;;13.43;12.80;;;16.30;99.90;;;;;;4952547;29;20456;-69
2021/08/04 04:27:03;;;;;;;14.07;13.27;;;16.40;99.90;;;;;;4952697;29;20456;-70
2021/08/04 04:29:29;;;;;;;13.50;12.83;;;16.30;99.90;;;;;;4952611;29;20861;-70
2021/08/04 04:31:57;;;;;;;15.30;14.40;;;16.40;99.90;;;;;;4952307;29;21149;-69
2021/08/04 04:34:24;;;;;;;17.93;16.37;;;16.40;99.90;;;;;;4952429;29;20870;-69
2021/08/04 04:36:51;;;;;;;17.00;15.90;;;16.40;99.90;;;;;;4952419;29;20873;-69
2021/08/04 04:39:18;;;;;;;15.87;14.77;;;16.30;99.90;;;;;;4952615;29;20503;-70
2021/08/04 04:41:44;;;;;;;16.50;15.33;;;16.30;99.90;;;;;;4952244;29;20449;-69
2021/08/04 04:44:11;;;;;;;18.83;17.63;;;16.30;99.90;;;;;;4952585;29;20457;-69
2021/08/04 04:46:37;;;;;;;17.73;16.37;;;16.30;99.90;;;;;;4952172;29;20448;-69
2021/08/04 04:49:05;;;;;;;17.47;16.47;;;16.20;99.90;;;;;;4952321;29;20875;-70
2021/08/04 04:51:32;;;;;;;16.70;15.30;;;16.30;99.90;;;;;;4952202;29;20492;-70
2021/08/04 04:53:59;;;;;;;17.10;15.80;;;16.30;99.90;;;;;;4952282;29;20464;-70
2021/08/04 04:56:25;;;;;;;17.80;16.13;;;16.30;99.90;;;;;;4953194;28;20912;-69
2021/08/04 04:58:54;;;;;;;17.90;16.70;;;16.30;99.90;;;;;;4955918;29;20830;-69
2021/08/04 05:01:21;;;;;;;14.93;14.13;;;16.40;99.90;;;;;;4955950;29;20575;-69
2021/08/04 05:03:47;;;;;;;16.30;15.00;;;16.40;99.90;;;;;;4956388;29;20823;-69
2021/08/04 05:06:16;;;;;;;15.47;14.47;;;16.40;99.90;;;;;;4955626;29;20453;-69
2021/08/04 05:08:42;;;;;;;15.33;14.27;;;16.50;99.90;;;;;;4956073;29;20452;-69
2021/08/04 05:11:09;;;;;;;16.20;15.10;;;16.60;99.90;;;;;;4955729;29;20563;-69
2021/08/04 05:13:37;;;;;;;16.30;15.37;;;16.60;99.90;;;;;;4955997;29;20452;-69
2021/08/04 05:16:04;;;;;;;19.23;17.93;;;16.70;99.90;;;;;;4955939;29;20452;-70
2021/08/04 05:18:30;;;;;;;23.27;21.27;;;16.80;99.90;;;;;;4955647;29;20452;-69
2021/08/04 05:20:57;;;;;;;17.20;16.10;;;16.80;99.90;;;;;;4955774;29;20495;-69
2021/08/04 05:23:25;;;;;;;18.30;17.10;;;16.90;99.90;;;;;;4955486;29;20511;-69
2021/08/04 05:25:52;;;;;;;16.17;14.97;;;17.10;99.90;;;;;;4955703;29;20452;-70
2021/08/04 05:28:18;;;;;;;14.70;13.53;;;17.30;99.90;;;;;;4955815;29;20452;-69
2021/08/04 05:30:45;;;;;;;15.40;14.40;;;17.30;99.90;;;;;;4955303;29;20535;-69
2021/08/04 05:33:12;;;;;;;14.70;13.70;;;17.40;99.90;;;;;;4955417;29;21007;-70
2021/08/04 05:35:39;;;;;;;15.40;14.40;;;17.40;99.90;;;;;;4955568;29;20464;-69
2021/08/04 05:38:05;;;;;;;15.47;14.33;;;17.40;99.90;;;;;;4955461;29;20456;-68
2021/08/04 05:40:33;;;;;;;13.87;13.17;;;17.50;99.90;;;;;;4955446;29;20925;-68
2021/08/04 05:43:00;;;;;;;14.07;12.97;;;17.80;99.90;;;;;;4955125;29;20491;-68
2021/08/04 05:45:27;;;;;;;14.60;13.73;;;18.20;99.90;;;;;;4955108;29;20448;-68
2021/08/04 05:47:54;;;;;;;14.43;13.73;;;18.40;99.90;;;;;;4954805;29;20459;-70
2021/08/04 05:50:20;;;;;;;14.77;13.17;;;18.40;99.90;;;;;;4952903;29;20530;-69
2021/08/04 05:52:47;;;;;;;14.30;13.60;;;18.30;99.90;;;;;;4954650;29;20529;-69
2021/08/04 05:55:14;;;;;;;15.03;14.13;;;18.30;99.90;;;;;;4954629;29;20476;-69
2021/08/04 05:57:43;;;;;;;15.43;14.43;;;18.40;99.90;;;;;;4954504;29;21027;-68
2021/08/04 06:00:10;;;;;;;13.37;12.77;;;18.60;99.90;;;;;;4953847;29;20528;-68
2021/08/04 06:02:37;;;;;;;12.27;11.70;;;18.80;99.90;;;;;;4942873;29;20559;-68
2021/08/04 06:05:05;;;;;;;14.53;13.43;;;19.00;99.90;;;;;;4949087;29;20445;-69
2021/08/04 06:07:31;;;;;;;14.00;13.07;;;19.30;99.90;;;;;;4935078;29;20465;-69
2021/08/04 06:09:58;;;;;;;14.13;13.40;;;19.20;99.90;;;;;;4946068;29;20452;-69
2021/08/04 06:12:25;;;;;;;13.40;12.90;;;19.50;99.90;;;;;;4954095;29;20496;-68
2021/08/04 06:14:53;;;;;;;13.33;12.73;;;19.60;99.90;;;;;;4954314;29;20464;-68
2021/08/04 06:17:19;;;;;;;13.63;13.03;;;19.70;99.90;;;;;;4953426;29;20457;-69
2021/08/04 06:19:46;;;;;;;13.80;13.13;;;20.00;99.90;;;;;;4935284;29;20517;-69
2021/08/04 06:22:13;;;;;;;14.70;14.00;;;20.20;99.90;;;;;;4941548;28;20527;-69
2021/08/04 06:24:40;;;;;;;13.80;13.10;;;20.20;99.90;;;;;;4953903;29;20452;-69
2021/08/04 06:27:07;;;;;;;14.60;13.90;;;19.90;99.90;;;;;;4953971;29;20456;-68
2021/08/04 06:29:33;;;;;;;13.87;13.27;;;20.00;99.90;;;;;;4954333;29;20464;-69
2021/08/04 06:32:01;;;;;;;12.80;12.30;;;20.00;99.90;;;;;;4953799;29;20492;-69
2021/08/04 06:34:28;;;;;;;12.83;12.33;;;19.80;99.90;;;;;;4953698;29;20448;-69
2021/08/04 06:36:55;;;;;;;13.30;12.70;;;20.10;99.90;;;;;;4953471;29;20453;-70
2021/08/04 06:39:22;;;;;;;13.67;13.10;;;20.70;99.90;;;;;;4953619;29;20464;-71
2021/08/04 06:41:48;;;;;;;14.23;13.43;;;21.40;99.90;;;;;;4953777;29;20456;-69
2021/08/04 06:44:15;;;;;;;14.40;13.80;;;22.30;99.90;;;;;;4953751;29;20464;-70
2021/08/04 06:46:42;;;;;;;14.10;13.40;;;23.10;99.90;;;;;;4953637;29;20463;-70
2021/08/04 06:49:10;;;;;;;14.47;13.40;;;22.60;99.90;;;;;;4953316;29;20452;-71
2021/08/04 06:51:37;;;;;;;14.20;13.30;;;22.00;99.90;;;;;;4953078;29;20492;-70
2021/08/04 06:54:04;;;;;;;12.63;12.10;;;21.60;99.90;;;;;;4951261;29;20475;-69
2021/08/04 06:56:31;;;;;;;13.50;12.70;;;20.90;99.90;;;;;;4953472;29;20459;-69
2021/08/04 22:43:32;;;;;;;12.90;12.30;;;18.50;99.90;;;;;;5923010;23;21520;-70
